Terminal Aerodrome Forecast
Issued by NWS

Home | Current Version | Previous Version | Text Only | Print | Product List | Glossary On
Versions: 1 2 3 4 5 6 7 8 9 10 11 12 13 14 15 16 17
730
FTUS41 KPBZ 241135
TAFBVI
TAF
KBVI 241135Z 2412/2512 11012KT P6SM VCSH SCT025 BKN040
      TEMPO 2413/2416 BKN025
     FM250000 12010KT 5SM -SHRA OVC025
     FM250400 12008KT 5SM -SHRA OVC015=

USA.gov is the U.S. government's official web portal to all federal, state and local government web resources and services.